createdAt,value
2022-10-29T00:01:06.790Z,94750.56
2022-10-29T00:03:33.234Z,94732.56
2022-10-29T00:06:02.506Z,94733.50
2022-10-29T00:08:30.472Z,94734.25
2022-10-29T00:11:06.268Z,94757.69
2022-10-29T00:13:32.942Z,94751.41
2022-10-29T00:15:59.409Z,94743.16
2022-10-29T00:18:26.818Z,94737.28
2022-10-29T00:21:00.967Z,94745.34
2022-10-29T00:23:27.372Z,94729.28
2022-10-29T00:25:59.608Z,94757.69
2022-10-29T00:28:26.587Z,94749.47
2022-10-29T00:30:52.981Z,94739.75
2022-10-29T00:36:12.622Z,94738.16
2022-10-29T00:38:39.085Z,94730.44
2022-10-29T00:41:07.113Z,94741.09
2022-10-29T00:43:36.132Z,94747.50
2022-10-29T00:46:12.749Z,94750.91
2022-10-29T00:48:48.664Z,94748.25
2022-10-29T00:51:16.570Z,94748.94
2022-10-29T00:53:48.309Z,94731.75
2022-10-29T00:56:16.291Z,94733.72
2022-10-29T00:58:45.887Z,94719.38
2022-10-29T01:01:12.708Z,94734.69
2022-10-29T01:03:39.342Z,94746.69
2022-10-29T01:06:06.135Z,94733.72
2022-10-29T01:08:32.560Z,94746.47
2022-10-29T01:10:59.021Z,94749.38
2022-10-29T01:13:47.019Z,94751.63
2022-10-29T01:16:24.698Z,94748.66
2022-10-29T01:19:09.350Z,94737.28
2022-10-29T01:21:40.242Z,94719.09
2022-10-29T01:24:20.040Z,94737.66
2022-10-29T01:27:17.344Z,94743.72
2022-10-29T01:30:05.464Z,94736.34
2022-10-29T01:32:57.479Z,94740.84
2022-10-29T01:35:51.638Z,94731.09
2022-10-29T01:38:34.648Z,94735.97
2022-10-29T01:41:23.717Z,94725.19
2022-10-29T01:43:57.006Z,94724.81
2022-10-29T01:46:52.948Z,94726.84
2022-10-29T01:49:25.465Z,94693.81
2022-10-29T01:51:54.022Z,94719.19
2022-10-29T01:54:20.996Z,94707.28
2022-10-29T01:56:55.247Z,94713.41
2022-10-29T01:59:51.374Z,94693.94
2022-10-29T02:02:33.885Z,94706.81
2022-10-29T02:05:33.016Z,94711.91
2022-10-29T02:08:08.561Z,94725.25
2022-10-29T02:10:44.021Z,94735.69
2022-10-29T02:13:14.094Z,94715.16
2022-10-29T02:15:51.276Z,94707.63
2022-10-29T02:18:17.940Z,94701.00
2022-10-29T02:20:45.973Z,94709.94
2022-10-29T02:23:13.322Z,94702.28
2022-10-29T02:25:39.757Z,94680.47
2022-10-29T02:28:06.408Z,94687.59
2022-10-29T02:30:36.829Z,94697.56
2022-10-29T02:33:03.282Z,94693.25
2022-10-29T02:35:29.671Z,94680.09
2022-10-29T02:37:56.042Z,94679.06
2022-10-29T02:40:22.420Z,94677.16
2022-10-29T02:42:48.970Z,94690.78
2022-10-29T02:45:15.420Z,94692.69
2022-10-29T02:47:41.813Z,94680.59
2022-10-29T02:50:08.869Z,94671.38
2022-10-29T02:52:35.225Z,94669.66
2022-10-29T02:55:01.612Z,94690.53
2022-10-29T02:57:27.988Z,94664.19
2022-10-29T02:59:54.434Z,94667.28
2022-10-29T03:02:20.916Z,94678.81
2022-10-29T03:04:47.352Z,94669.63
2022-10-29T03:07:13.788Z,94652.50
2022-10-29T03:09:40.238Z,94645.81
2022-10-29T03:12:07.029Z,94664.03
2022-10-29T03:14:33.516Z,94653.50
2022-10-29T03:16:59.958Z,94648.19
2022-10-29T03:19:26.335Z,94669.88
2022-10-29T03:21:52.704Z,94680.91
2022-10-29T03:24:19.085Z,94675.31
2022-10-29T03:26:45.624Z,94673.41
2022-10-29T03:29:12.004Z,94679.19
2022-10-29T03:31:38.439Z,94670.88
2022-10-29T03:34:04.889Z,94674.44
2022-10-29T03:36:31.327Z,94662.94
2022-10-29T03:38:57.699Z,94643.53
2022-10-29T03:41:24.152Z,94655.94
2022-10-29T03:43:50.911Z,94646.63
2022-10-29T03:46:17.321Z,94665.22
2022-10-29T03:48:43.697Z,94665.47
2022-10-29T03:51:10.454Z,94680.28
2022-10-29T03:53:38.349Z,94657.53
2022-10-29T03:56:05.373Z,94667.28
2022-10-29T03:58:31.792Z,94679.91
2022-10-29T04:01:03.482Z,94659.34
2022-10-29T04:03:31.839Z,94669.81
2022-10-29T04:06:03.556Z,94660.59
2022-10-29T04:08:29.991Z,94665.56
2022-10-29T04:10:56.358Z,94658.63
2022-10-29T04:13:22.785Z,94653.88
2022-10-29T04:15:52.936Z,94672.16
2022-10-29T04:18:19.305Z,94653.38
2022-10-29T04:21:59.031Z,94679.72
2022-10-29T04:29:07.087Z,94658.44
2022-10-29T04:31:33.464Z,94656.28
2022-10-29T04:33:59.882Z,94654.75
2022-10-29T04:36:26.283Z,94646.91
2022-10-29T04:38:52.722Z,94666.91
2022-10-29T04:41:19.103Z,94667.47
2022-10-29T04:43:58.947Z,94685.00
2022-10-29T04:46:25.450Z,94675.38
2022-10-29T04:48:54.549Z,94687.28
2022-10-29T04:51:26.285Z,94685.13
2022-10-29T04:53:52.798Z,94660.78
2022-10-29T04:56:25.217Z,94665.28
2022-10-29T04:58:52.674Z,94688.22
2022-10-29T05:01:30.471Z,94672.31
2022-10-29T05:03:59.865Z,94670.00
2022-10-29T05:06:26.719Z,94657.06
2022-10-29T05:08:53.123Z,94658.34
2022-10-29T05:11:19.566Z,94662.25
2022-10-29T05:13:46.453Z,94631.59
2022-10-29T05:16:18.116Z,94662.41
2022-10-29T05:18:44.547Z,94672.69
2022-10-29T05:21:10.919Z,94663.88
2022-10-29T05:23:37.511Z,94671.34
2022-10-29T05:26:04.044Z,94670.50
2022-10-29T05:28:30.553Z,94683.31
2022-10-29T05:31:00.870Z,94666.53
2022-10-29T05:33:27.273Z,94681.41
2022-10-29T05:35:58.721Z,94670.53
2022-10-29T05:38:25.180Z,94681.44
2022-10-29T05:40:51.565Z,94678.81
2022-10-29T05:43:24.240Z,94653.75
2022-10-29T05:45:50.778Z,94655.66
2022-10-29T05:48:18.350Z,94673.16
2022-10-29T05:50:44.825Z,94600.28
2022-10-29T05:53:13.577Z,94638.84
2022-10-29T05:55:40.980Z,94690.53
2022-10-29T05:58:13.191Z,94688.91
2022-10-29T06:00:42.681Z,94656.09
2022-10-29T06:03:31.168Z,94695.03
2022-10-29T06:05:57.577Z,94688.22
2022-10-29T06:08:24.028Z,94674.84
2022-10-29T06:10:50.497Z,94672.22
2022-10-29T06:13:19.054Z,94675.03
2022-10-29T06:15:46.797Z,94686.22
2022-10-29T06:18:13.587Z,94670.34
2022-10-29T06:20:40.123Z,94674.47
2022-10-29T06:23:06.875Z,94653.84
2022-10-29T06:25:33.297Z,94676.66
2022-10-29T06:28:05.324Z,94697.47
2022-10-29T06:30:34.190Z,94685.41
2022-10-29T06:33:09.832Z,94676.28
2022-10-29T06:35:36.357Z,94692.44
2022-10-29T06:38:07.794Z,94654.41
2022-10-29T06:40:38.404Z,94696.69
2022-10-29T06:43:06.864Z,94708.31
2022-10-29T06:45:34.277Z,94693.09
2022-10-29T06:48:01.343Z,94684.59
2022-10-29T06:50:28.489Z,94670.53
2022-10-29T06:52:55.943Z,94683.16
2022-10-29T06:55:22.595Z,94682.44
2022-10-29T06:57:56.484Z,94713.53
2022-10-29T07:00:22.856Z,94701.38
2022-10-29T07:02:59.520Z,94705.50
2022-10-29T07:05:26.602Z,94720.84
2022-10-29T07:08:00.823Z,94697.41
2022-10-29T07:10:29.780Z,94718.75
2022-10-29T07:12:56.382Z,94695.78
2022-10-29T07:15:25.783Z,94709.81
2022-10-29T07:18:05.008Z,94722.16
2022-10-29T07:20:34.060Z,94717.53
2022-10-29T07:23:01.388Z,94711.94
2022-10-29T07:25:29.236Z,94695.34
2022-10-29T07:28:02.202Z,94712.06
2022-10-29T07:30:28.869Z,94696.34
2022-10-29T07:32:55.279Z,94709.69
2022-10-29T07:35:21.705Z,94698.13
2022-10-29T07:37:48.129Z,94693.75
2022-10-29T07:40:14.577Z,94692.63
2022-10-29T07:42:41.020Z,94656.56
2022-10-29T07:45:07.995Z,94703.59
2022-10-29T07:47:35.562Z,94721.16
2022-10-29T07:50:01.995Z,94697.69
2022-10-29T07:52:28.426Z,94703.19
2022-10-29T07:54:54.809Z,94725.03
2022-10-29T07:57:22.392Z,94714.13
2022-10-29T07:59:50.180Z,94693.16
2022-10-29T08:02:16.690Z,94666.63
2022-10-29T08:04:43.144Z,94699.84
2022-10-29T08:07:09.569Z,94696.66
2022-10-29T08:09:35.984Z,94693.06
2022-10-29T08:12:04.959Z,94699.00
2022-10-29T08:14:31.391Z,94706.50
2022-10-29T08:16:57.905Z,94709.16
2022-10-29T08:19:24.686Z,94680.81
2022-10-29T08:21:51.069Z,94633.72
2022-10-29T08:24:17.520Z,94662.84
2022-10-29T08:26:44.060Z,94663.31
2022-10-29T08:29:10.484Z,94663.31
2022-10-29T08:31:36.891Z,94669.41
2022-10-29T08:34:07.149Z,94538.78
2022-10-29T08:36:36.490Z,94663.31
2022-10-29T08:39:02.938Z,94660.53
2022-10-29T08:41:45.074Z,94687.16
2022-10-29T08:44:40.717Z,94691.91
2022-10-29T08:47:20.626Z,94668.22
2022-10-29T08:49:50.065Z,94694.28
2022-10-29T08:52:24.754Z,94687.34
2022-10-29T08:55:13.674Z,94671.88
2022-10-29T08:57:49.137Z,94693.75
2022-10-29T09:00:18.861Z,94694.94
2022-10-29T09:02:45.348Z,94699.38
2022-10-29T09:05:17.509Z,94696.88
2022-10-29T09:07:55.238Z,94698.00
2022-10-29T09:10:37.439Z,94689.66
2022-10-29T09:13:25.093Z,94698.19
2022-10-29T09:16:21.259Z,94668.50
2022-10-29T09:19:08.439Z,94672.41
2022-10-29T09:21:56.868Z,94694.00
2022-10-29T09:24:35.079Z,94665.59
2022-10-29T09:27:29.543Z,94686.25
2022-10-29T09:29:58.933Z,94684.47
2022-10-29T09:32:39.168Z,94668.03
2022-10-29T09:35:16.993Z,94656.84
2022-10-29T09:37:54.809Z,94662.28
2022-10-29T09:40:40.288Z,94678.19
2022-10-29T09:43:12.588Z,94656.84
2022-10-29T09:45:50.505Z,94649.97
2022-10-29T09:48:22.472Z,94664.09
2022-10-29T09:51:19.079Z,94641.06
2022-10-29T09:53:45.875Z,94653.13
2022-10-29T09:56:12.284Z,94636.63
2022-10-29T09:58:44.599Z,94659.59
2022-10-29T10:01:11.466Z,94642.38
2022-10-29T10:03:48.474Z,94646.31
2022-10-29T10:06:16.834Z,94637.16
2022-10-29T10:09:04.836Z,94636.84
2022-10-29T10:11:35.279Z,94632.81
2022-10-29T10:14:09.498Z,94631.06
2022-10-29T10:16:36.046Z,94624.22
2022-10-29T10:19:02.810Z,94619.63
2022-10-29T10:21:33.673Z,94634.84
2022-10-29T10:24:00.805Z,94621.78
2022-10-29T10:26:43.033Z,94629.91
2022-10-29T10:29:21.156Z,94622.84
2022-10-29T10:32:10.748Z,94583.91
2022-10-29T10:34:39.245Z,94618.63
2022-10-29T10:37:18.849Z,94608.09
2022-10-29T10:39:58.298Z,94585.28
2022-10-29T10:42:36.951Z,94615.78
2022-10-29T10:45:14.402Z,94606.28
2022-10-29T10:47:45.652Z,94589.16
2022-10-29T10:50:21.086Z,94579.72
2022-10-29T10:52:47.824Z,94568.56
2022-10-29T10:55:25.498Z,94558.41
2022-10-29T10:57:56.017Z,94570.25
2022-10-29T11:00:23.410Z,94571.03
2022-10-29T11:03:08.233Z,94581.53
2022-10-29T11:05:43.733Z,94567.66
2022-10-29T11:08:19.120Z,94573.59
2022-10-29T11:10:53.561Z,94570.19
2022-10-29T11:13:23.228Z,94538.97
2022-10-29T11:16:04.492Z,94549.22
2022-10-29T11:18:37.975Z,94549.88
2022-10-29T11:21:42.623Z,94547.19
2022-10-29T11:24:14.160Z,94535.19
2022-10-29T11:27:02.962Z,94525.38
2022-10-29T11:29:48.950Z,94539.28
2022-10-29T11:32:25.624Z,94522.75
2022-10-29T11:35:16.606Z,94536.09
2022-10-29T11:37:47.368Z,94529.75
2022-10-29T11:40:19.884Z,94510.53
2022-10-29T11:42:46.305Z,94504.63
2022-10-29T11:45:17.379Z,94497.19
2022-10-29T11:47:55.608Z,94526.53
2022-10-29T11:50:32.190Z,94517.44
2022-10-29T11:53:19.809Z,94512.38
2022-10-29T11:56:16.538Z,94473.16
2022-10-29T11:58:53.580Z,94490.22
2022-10-29T12:01:22.981Z,94504.88
2022-10-29T12:03:49.429Z,94504.06
2022-10-29T12:06:41.004Z,94484.84
2022-10-29T12:09:37.815Z,94493.88
2022-10-29T12:12:23.443Z,94503.47
2022-10-29T12:14:59.579Z,94473.75
2022-10-29T12:17:38.025Z,94487.25
2022-10-29T12:20:16.983Z,94465.88
2022-10-29T12:23:25.312Z,94484.31
2022-10-29T12:26:02.193Z,94454.94
2022-10-29T12:28:47.802Z,94479.59
2022-10-29T12:31:28.922Z,94459.88
2022-10-29T12:34:23.847Z,94476.91
2022-10-29T12:37:10.158Z,94478.81
2022-10-29T12:39:43.732Z,94463.97
2022-10-29T12:42:19.242Z,94452.16
2022-10-29T12:45:07.012Z,94476.13
2022-10-29T12:48:15.334Z,94445.81
2022-10-29T12:51:04.057Z,94459.50
2022-10-29T12:53:56.236Z,94455.59
2022-10-29T12:56:23.912Z,94460.47
2022-10-29T12:58:53.159Z,94459.47
2022-10-29T13:01:38.215Z,94453.88
2022-10-29T13:04:30.075Z,94458.84
2022-10-29T13:07:01.269Z,94458.78
2022-10-29T13:09:36.016Z,94448.06
2022-10-29T13:12:10.477Z,94452.88
2022-10-29T13:14:46.223Z,94428.84
2022-10-29T13:17:30.034Z,94454.69
2022-10-29T13:20:00.207Z,94434.22
2022-10-29T13:22:54.202Z,94460.28
2022-10-29T13:25:44.557Z,94448.59
2022-10-29T13:28:11.122Z,94449.69
2022-10-29T13:30:39.800Z,94450.56
2022-10-29T13:33:28.063Z,94454.03
2022-10-29T13:36:16.458Z,94447.97
2022-10-29T13:39:05.975Z,94410.72
2022-10-29T13:41:40.205Z,94433.19
2022-10-29T13:44:14.202Z,94444.13
2022-10-29T13:47:01.044Z,94444.53
2022-10-29T13:49:36.758Z,94437.88
2022-10-29T13:52:05.294Z,94435.88
2022-10-29T13:54:54.971Z,94414.44
2022-10-29T13:57:28.788Z,94428.94
2022-10-29T14:00:01.579Z,94427.03
2022-10-29T14:02:39.397Z,94444.31
2022-10-29T14:05:23.866Z,94445.00
2022-10-29T14:08:17.232Z,94442.03
2022-10-29T14:10:43.609Z,94449.50
2022-10-29T14:13:31.238Z,94439.91
2022-10-29T14:16:02.847Z,94437.25
2022-10-29T14:18:32.553Z,94419.69
2022-10-29T14:21:01.383Z,94437.88
2022-10-29T14:23:29.343Z,94451.75
2022-10-29T14:26:03.829Z,94451.78
2022-10-29T14:28:32.397Z,94436.03
2022-10-29T14:31:15.233Z,94454.44
2022-10-29T14:33:43.300Z,94439.50
2022-10-29T14:36:15.524Z,94452.31
2022-10-29T14:38:48.468Z,94430.94
2022-10-29T14:41:16.561Z,94454.97
2022-10-29T14:43:44.503Z,94428.03
2022-10-29T14:46:23.907Z,94453.88
2022-10-29T14:48:59.370Z,94431.72
2022-10-29T14:51:26.897Z,94428.69
2022-10-29T14:53:59.797Z,94425.03
2022-10-29T14:56:33.415Z,94431.34
2022-10-29T14:59:02.933Z,94444.47
2022-10-29T15:01:29.598Z,94423.41
2022-10-29T15:03:58.602Z,94431.44
2022-10-29T15:06:28.166Z,94426.31
2022-10-29T15:08:58.251Z,94432.72
2022-10-29T15:11:40.323Z,94454.34
2022-10-29T15:14:36.495Z,94436.88
2022-10-29T15:17:10.220Z,94448.78
2022-10-29T15:19:37.769Z,94432.91
2022-10-29T15:22:11.649Z,94403.22
2022-10-29T15:24:38.936Z,94440.06
2022-10-29T15:27:06.424Z,94452.38
2022-10-29T15:29:43.127Z,94439.38
2022-10-29T15:32:14.868Z,94453.06
2022-10-29T15:34:47.441Z,94441.00
2022-10-29T15:37:19.924Z,94450.66
2022-10-29T15:39:55.600Z,94455.56
2022-10-29T15:42:24.858Z,94441.66
2022-10-29T15:47:50.938Z,94432.50
2022-10-29T15:50:23.197Z,94458.97
2022-10-29T15:52:58.533Z,94444.28
2022-10-29T15:55:33.631Z,94459.69
2022-10-29T15:58:11.740Z,94431.75
2022-10-29T16:00:40.249Z,94446.13
2022-10-29T16:03:27.475Z,94454.72
2022-10-29T16:05:56.253Z,94441.31
2022-10-29T16:08:32.973Z,94448.19
2022-10-29T16:11:01.821Z,94448.34
2022-10-29T16:13:30.472Z,94442.69
2022-10-29T16:15:56.937Z,94441.78
2022-10-29T16:18:23.366Z,94450.69
2022-10-29T16:20:53.583Z,94449.50
2022-10-29T16:23:19.976Z,94452.38
2022-10-29T16:25:46.377Z,94448.63
2022-10-29T16:28:13.001Z,94440.78
2022-10-29T16:33:11.856Z,94459.66
2022-10-29T16:35:38.227Z,94480.03
2022-10-29T16:38:04.613Z,94464.81
2022-10-29T16:40:31.001Z,94431.72
2022-10-29T16:42:57.914Z,94448.59
2022-10-29T16:45:27.261Z,94476.19
2022-10-29T16:47:54.376Z,94457.38
2022-10-29T16:50:32.392Z,94447.03
2022-10-29T16:53:07.789Z,94470.06
2022-10-29T16:55:36.594Z,94460.81
2022-10-29T16:58:03.577Z,94479.41
2022-10-29T17:00:31.862Z,94434.69
2022-10-29T17:03:04.960Z,94475.56
2022-10-29T17:05:38.263Z,94462.72
2022-10-29T17:08:05.100Z,94450.63
2022-10-29T17:10:31.558Z,94456.63
2022-10-29T17:12:59.360Z,94477.78
2022-10-29T17:15:26.551Z,94467.72
2022-10-29T17:17:53.294Z,94464.81
2022-10-29T17:20:20.643Z,94482.91
2022-10-29T17:22:47.077Z,94467.84
2022-10-29T17:25:13.506Z,94468.91
2022-10-29T17:27:43.473Z,94480.13
2022-10-29T17:30:10.864Z,94449.16
2022-10-29T17:32:37.676Z,94455.22
2022-10-29T17:35:04.569Z,94489.78
2022-10-29T17:37:31.237Z,94465.81
2022-10-29T17:40:01.463Z,94468.28
2022-10-29T17:42:31.418Z,94478.81
2022-10-29T17:44:57.821Z,94473.38
2022-10-29T17:47:24.311Z,94477.88
2022-10-29T17:49:50.768Z,94479.28
2022-10-29T17:52:19.434Z,94495.47
2022-10-29T17:54:45.822Z,94478.91
2022-10-29T17:57:12.218Z,94483.78
2022-10-29T17:59:38.623Z,94476.31
2022-10-29T18:02:05.169Z,94468.41
2022-10-29T18:04:31.711Z,94480.16
2022-10-29T18:06:59.094Z,94441.00
2022-10-29T18:09:25.509Z,94444.81
2022-10-29T18:11:51.930Z,94428.06
2022-10-29T18:14:18.416Z,94488.25
2022-10-29T18:16:45.775Z,94479.34
2022-10-29T18:19:15.260Z,94474.53
2022-10-29T18:21:41.717Z,94489.03
2022-10-29T18:24:08.472Z,94474.50
2022-10-29T18:26:36.760Z,94495.94
2022-10-29T18:29:08.181Z,94491.09
2022-10-29T18:31:35.178Z,94471.13
2022-10-29T18:34:06.264Z,94472.09
2022-10-29T18:36:35.558Z,94494.16
2022-10-29T18:39:03.862Z,94463.22
2022-10-29T18:41:30.717Z,94489.50
2022-10-29T18:43:58.658Z,94487.22
2022-10-29T18:46:25.615Z,94476.13
2022-10-29T18:48:52.683Z,94482.81
2022-10-29T18:51:20.962Z,94482.56
2022-10-29T18:53:47.379Z,94433.88
2022-10-29T18:56:18.815Z,94478.91
2022-10-29T18:58:45.832Z,94460.72
2022-10-29T19:01:18.728Z,94468.78
2022-10-29T19:03:53.177Z,94483.91
2022-10-29T19:06:20.784Z,94477.47
2022-10-29T19:08:47.928Z,94484.53
2022-10-29T19:11:16.816Z,94479.69
2022-10-29T19:13:43.258Z,94463.81
2022-10-29T19:16:12.395Z,94480.47
2022-10-29T19:18:40.729Z,94459.41
2022-10-29T19:21:19.372Z,94458.59
2022-10-29T19:23:46.572Z,94482.25
2022-10-29T19:26:18.447Z,94464.63
2022-10-29T19:28:46.454Z,94470.69
2022-10-29T19:31:15.365Z,94460.13
2022-10-29T19:33:47.513Z,94440.69
2022-10-29T19:36:14.053Z,94481.31
2022-10-29T19:38:40.455Z,94468.81
2022-10-29T19:41:06.866Z,94458.50
2022-10-29T19:43:33.631Z,94454.03
2022-10-29T19:46:01.333Z,94425.47
2022-10-29T19:48:27.735Z,94449.16
2022-10-29T19:50:56.149Z,94472.25
2022-10-29T19:53:24.032Z,94456.84
2022-10-29T19:55:51.151Z,94473.28
2022-10-29T19:58:18.627Z,94453.78
2022-10-29T20:00:45.290Z,94474.84
2022-10-29T20:03:12.895Z,94475.19
2022-10-29T20:05:40.317Z,94440.41
2022-10-29T20:08:11.355Z,94450.88
2022-10-29T20:10:41.318Z,94459.72
2022-10-29T20:13:07.778Z,94438.31
2022-10-29T20:15:34.186Z,94447.63
2022-10-29T20:18:00.829Z,94447.25
2022-10-29T20:20:27.424Z,94475.16
2022-10-29T20:22:53.932Z,94456.47
2022-10-29T20:25:23.857Z,94454.94
2022-10-29T20:27:50.715Z,94459.72
2022-10-29T20:30:18.217Z,94443.91
2022-10-29T20:32:44.683Z,94449.81
2022-10-29T20:35:11.202Z,94482.13
2022-10-29T20:37:37.570Z,94464.28
2022-10-29T20:40:04.893Z,94460.91
2022-10-29T20:42:31.311Z,94474.75
2022-10-29T20:45:10.991Z,94464.22
2022-10-29T20:47:37.380Z,94456.38
2022-10-29T20:50:04.036Z,94465.34
2022-10-29T20:52:30.445Z,94465.78
2022-10-29T20:54:56.857Z,94469.22
2022-10-29T20:57:29.491Z,94454.03
2022-10-29T20:59:56.037Z,94481.56
2022-10-29T21:02:22.548Z,94485.06
2022-10-29T21:04:49.077Z,94468.75
2022-10-29T21:07:15.515Z,94465.34
2022-10-29T21:09:41.905Z,94455.31
2022-10-29T21:12:08.340Z,94451.16
2022-10-29T21:14:34.778Z,94462.00
2022-10-29T21:17:01.195Z,94467.22
2022-10-29T21:19:28.158Z,94473.34
2022-10-29T21:21:54.569Z,94453.03
2022-10-29T21:24:20.967Z,94469.59
2022-10-29T21:26:47.371Z,94464.38
2022-10-29T21:29:13.759Z,94492.28
2022-10-29T21:31:40.159Z,94450.47
2022-10-29T21:34:10.689Z,94457.19
2022-10-29T21:36:37.069Z,94451.50
2022-10-29T21:39:03.572Z,94473.47
2022-10-29T21:41:29.974Z,94473.66
2022-10-29T21:43:56.369Z,94473.16
2022-10-29T21:46:22.759Z,94452.81
2022-10-29T21:48:49.158Z,94468.13
2022-10-29T21:51:17.110Z,94491.91
2022-10-29T21:53:43.756Z,94470.06
2022-10-29T21:56:12.780Z,94487.78
2022-10-29T21:58:39.276Z,94472.28
2022-10-29T22:01:07.409Z,94474.81
2022-10-29T22:03:35.195Z,94480.41
2022-10-29T22:06:06.997Z,94468.91
2022-10-29T22:08:34.554Z,94462.41
2022-10-29T22:11:01.568Z,94463.94
2022-10-29T22:13:32.032Z,94485.38
2022-10-29T22:15:58.737Z,94479.69
2022-10-29T22:18:37.216Z,94472.94
2022-10-29T22:21:08.134Z,94487.25
2022-10-29T22:23:35.189Z,94469.88
2022-10-29T22:26:01.721Z,94462.59
2022-10-29T22:28:28.213Z,94436.03
2022-10-29T22:31:02.005Z,94443.50
2022-10-29T22:33:29.138Z,94439.34
2022-10-29T22:35:55.727Z,94473.03
2022-10-29T22:38:22.182Z,94464.91
2022-10-29T22:40:48.645Z,94436.66
2022-10-29T22:43:15.254Z,94448.38
2022-10-29T22:45:45.472Z,94440.97
2022-10-29T22:48:12.351Z,94450.75
2022-10-29T22:50:38.775Z,94440.63
2022-10-29T22:53:05.163Z,94416.31
2022-10-29T22:55:31.639Z,94405.16
2022-10-29T22:57:58.019Z,94429.91
2022-10-29T23:00:24.462Z,94429.66
2022-10-29T23:02:50.824Z,94436.84
2022-10-29T23:05:17.238Z,94439.72
2022-10-29T23:07:43.628Z,94433.06
2022-10-29T23:10:10.053Z,94427.31
2022-10-29T23:12:38.207Z,94422.81
2022-10-29T23:15:05.357Z,94449.59
2022-10-29T23:17:31.742Z,94396.72
2022-10-29T23:19:58.737Z,94424.88
2022-10-29T23:22:27.530Z,94428.56
2022-10-29T23:24:54.239Z,94423.25
2022-10-29T23:27:20.642Z,94422.56
2022-10-29T23:29:47.064Z,94418.63
2022-10-29T23:32:14.429Z,94431.59
2022-10-29T23:34:40.861Z,94414.13
2022-10-29T23:37:09.928Z,94416.72
2022-10-29T23:39:36.890Z,94422.94
2022-10-29T23:42:03.431Z,94422.94
2022-10-29T23:44:29.804Z,94418.19
2022-10-29T23:46:56.172Z,94407.06
2022-10-29T23:49:22.561Z,94415.50
2022-10-29T23:51:48.946Z,94396.69
2022-10-29T23:54:15.333Z,94405.03
2022-10-29T23:56:41.709Z,94402.97
2022-10-29T23:59:08.095Z,94383.81
